sensor_id;sensor_type;location;lat;lon;timestamp;P1;durP1;ratioP1;P2;durP2;ratioP2
52608;SDS011;38503;48.544;12.142;2022-07-29T00:02:24;7.03;;;6.33;;
52608;SDS011;38503;48.544;12.142;2022-07-29T00:04:53;9.10;;;6.90;;
52608;SDS011;38503;48.544;12.142;2022-07-29T00:07:20;8.67;;;6.77;;
52608;SDS011;38503;48.544;12.142;2022-07-29T00:09:47;8.10;;;6.77;;
52608;SDS011;38503;48.544;12.142;2022-07-29T00:12:18;6.33;;;5.83;;
52608;SDS011;38503;48.544;12.142;2022-07-29T00:14:53;8.17;;;6.30;;
52608;SDS011;38503;48.544;12.142;2022-07-29T00:17:22;8.17;;;6.67;;
52608;SDS011;38503;48.544;12.142;2022-07-29T00:19:52;8.53;;;6.27;;
52608;SDS011;38503;48.544;12.142;2022-07-29T00:22:19;6.77;;;6.07;;
52608;SDS011;38503;48.544;12.142;2022-07-29T00:24:47;7.23;;;6.43;;
52608;SDS011;38503;48.544;12.142;2022-07-29T00:27:15;8.77;;;6.30;;
52608;SDS011;38503;48.544;12.142;2022-07-29T00:29:43;6.97;;;6.37;;
52608;SDS011;38503;48.544;12.142;2022-07-29T00:32:09;7.40;;;6.30;;
52608;SDS011;38503;48.544;12.142;2022-07-29T00:34:36;7.53;;;5.90;;
52608;SDS011;38503;48.544;12.142;2022-07-29T00:37:22;6.60;;;6.00;;
52608;SDS011;38503;48.544;12.142;2022-07-29T00:39:49;7.67;;;6.83;;
52608;SDS011;38503;48.544;12.142;2022-07-29T00:42:16;7.10;;;6.40;;
52608;SDS011;38503;48.544;12.142;2022-07-29T00:44:43;6.43;;;5.93;;
52608;SDS011;38503;48.544;12.142;2022-07-29T00:47:10;6.67;;;6.07;;
52608;SDS011;38503;48.544;12.142;2022-07-29T00:49:38;10.23;;;9.13;;
52608;SDS011;38503;48.544;12.142;2022-07-29T00:52:07;15.23;;;12.00;;
52608;SDS011;38503;48.544;12.142;2022-07-29T00:54:35;9.27;;;7.90;;
52608;SDS011;38503;48.544;12.142;2022-07-29T00:57:09;7.07;;;6.37;;
52608;SDS011;38503;48.544;12.142;2022-07-29T00:59:37;7.00;;;6.40;;
52608;SDS011;38503;48.544;12.142;2022-07-29T01:02:04;7.37;;;6.30;;
52608;SDS011;38503;48.544;12.142;2022-07-29T01:04:31;5.27;;;4.90;;
52608;SDS011;38503;48.544;12.142;2022-07-29T01:06:59;6.80;;;5.90;;
52608;SDS011;38503;48.544;12.142;2022-07-29T01:09:28;7.13;;;5.60;;
52608;SDS011;38503;48.544;12.142;2022-07-29T01:12:15;7.67;;;5.13;;
52608;SDS011;38503;48.544;12.142;2022-07-29T01:14:47;6.10;;;5.50;;
52608;SDS011;38503;48.544;12.142;2022-07-29T01:17:21;6.03;;;5.43;;
52608;SDS011;38503;48.544;12.142;2022-07-29T01:19:56;7.67;;;5.30;;
52608;SDS011;38503;48.544;12.142;2022-07-29T01:22:26;6.33;;;5.23;;
52608;SDS011;38503;48.544;12.142;2022-07-29T01:25:17;5.30;;;4.80;;
52608;SDS011;38503;48.544;12.142;2022-07-29T01:30:42;6.60;;;5.27;;
52608;SDS011;38503;48.544;12.142;2022-07-29T01:33:13;5.97;;;5.43;;
52608;SDS011;38503;48.544;12.142;2022-07-29T01:36:05;5.90;;;5.30;;
52608;SDS011;38503;48.544;12.142;2022-07-29T01:38:38;5.80;;;5.20;;
52608;SDS011;38503;48.544;12.142;2022-07-29T01:41:15;7.77;;;5.77;;
52608;SDS011;38503;48.544;12.142;2022-07-29T01:43:49;6.23;;;5.43;;
52608;SDS011;38503;48.544;12.142;2022-07-29T01:46:37;6.93;;;5.10;;
52608;SDS011;38503;48.544;12.142;2022-07-29T01:49:11;8.10;;;5.63;;
52608;SDS011;38503;48.544;12.142;2022-07-29T01:51:53;7.83;;;5.47;;
52608;SDS011;38503;48.544;12.142;2022-07-29T01:56:57;6.27;;;5.40;;
52608;SDS011;38503;48.544;12.142;2022-07-29T01:59:26;5.60;;;5.10;;
52608;SDS011;38503;48.544;12.142;2022-07-29T02:01:57;6.60;;;5.20;;
52608;SDS011;38503;48.544;12.142;2022-07-29T02:04:26;4.97;;;4.57;;
52608;SDS011;38503;48.544;12.142;2022-07-29T02:06:57;5.63;;;5.07;;
52608;SDS011;38503;48.544;12.142;2022-07-29T02:09:27;5.10;;;4.67;;
52608;SDS011;38503;48.544;12.142;2022-07-29T02:11:56;5.63;;;5.13;;
52608;SDS011;38503;48.544;12.142;2022-07-29T02:14:25;5.03;;;4.50;;
52608;SDS011;38503;48.544;12.142;2022-07-29T02:16:58;5.30;;;4.80;;
52608;SDS011;38503;48.544;12.142;2022-07-29T02:19:26;5.00;;;4.60;;
52608;SDS011;38503;48.544;12.142;2022-07-29T02:21:55;5.03;;;4.63;;
52608;SDS011;38503;48.544;12.142;2022-07-29T02:24:24;5.80;;;5.00;;
52608;SDS011;38503;48.544;12.142;2022-07-29T02:26:53;5.33;;;4.40;;
52608;SDS011;38503;48.544;12.142;2022-07-29T02:29:26;5.30;;;4.77;;
52608;SDS011;38503;48.544;12.142;2022-07-29T02:31:55;4.97;;;4.40;;
52608;SDS011;38503;48.544;12.142;2022-07-29T02:34:25;6.77;;;4.17;;
52608;SDS011;38503;48.544;12.142;2022-07-29T02:36:54;5.07;;;4.20;;
52608;SDS011;38503;48.544;12.142;2022-07-29T02:39:23;4.87;;;4.20;;
52608;SDS011;38503;48.544;12.142;2022-07-29T02:41:54;4.50;;;4.10;;
52608;SDS011;38503;48.544;12.142;2022-07-29T02:44:25;5.37;;;4.10;;
52608;SDS011;38503;48.544;12.142;2022-07-29T02:55:48;4.27;;;3.50;;
52608;SDS011;38503;48.544;12.142;2022-07-29T02:58:00;3.80;;;3.50;;
52608;SDS011;38503;48.544;12.142;2022-07-29T03:00:29;10.80;;;6.27;;
52608;SDS011;38503;48.544;12.142;2022-07-29T03:02:59;4.40;;;3.30;;
52608;SDS011;38503;48.544;12.142;2022-07-29T03:05:29;6.27;;;4.37;;
52608;SDS011;38503;48.544;12.142;2022-07-29T03:07:58;15.43;;;7.53;;
52608;SDS011;38503;48.544;12.142;2022-07-29T03:10:29;5.20;;;3.73;;
52608;SDS011;38503;48.544;12.142;2022-07-29T03:12:57;3.53;;;3.20;;
52608;SDS011;38503;48.544;12.142;2022-07-29T03:15:24;3.20;;;3.00;;
52608;SDS011;38503;48.544;12.142;2022-07-29T03:17:52;3.60;;;3.00;;
52608;SDS011;38503;48.544;12.142;2022-07-29T03:20:20;3.73;;;3.33;;
52608;SDS011;38503;48.544;12.142;2022-07-29T03:22:47;3.43;;;3.13;;
52608;SDS011;38503;48.544;12.142;2022-07-29T03:25:16;7.57;;;3.33;;
52608;SDS011;38503;48.544;12.142;2022-07-29T03:27:44;3.93;;;3.03;;
52608;SDS011;38503;48.544;12.142;2022-07-29T03:30:12;3.33;;;3.03;;
52608;SDS011;38503;48.544;12.142;2022-07-29T03:32:43;3.33;;;2.90;;
52608;SDS011;38503;48.544;12.142;2022-07-29T03:35:10;3.10;;;2.80;;
52608;SDS011;38503;48.544;12.142;2022-07-29T03:37:37;3.50;;;3.20;;
52608;SDS011;38503;48.544;12.142;2022-07-29T03:40:05;3.40;;;3.10;;
52608;SDS011;38503;48.544;12.142;2022-07-29T03:42:35;3.30;;;3.00;;
52608;SDS011;38503;48.544;12.142;2022-07-29T03:45:07;3.50;;;3.17;;
52608;SDS011;38503;48.544;12.142;2022-07-29T03:47:38;3.80;;;3.20;;
52608;SDS011;38503;48.544;12.142;2022-07-29T03:50:17;3.03;;;2.77;;
52608;SDS011;38503;48.544;12.142;2022-07-29T03:52:47;7.03;;;4.60;;
52608;SDS011;38503;48.544;12.142;2022-07-29T03:55:14;3.87;;;3.40;;
52608;SDS011;38503;48.544;12.142;2022-07-29T03:57:43;4.73;;;3.50;;
52608;SDS011;38503;48.544;12.142;2022-07-29T04:00:11;3.37;;;3.07;;
52608;SDS011;38503;48.544;12.142;2022-07-29T04:02:38;3.60;;;3.30;;
52608;SDS011;38503;48.544;12.142;2022-07-29T04:05:11;3.53;;;3.10;;
52608;SDS011;38503;48.544;12.142;2022-07-29T04:07:39;4.60;;;3.40;;
52608;SDS011;38503;48.544;12.142;2022-07-29T04:10:06;4.17;;;3.67;;
52608;SDS011;38503;48.544;12.142;2022-07-29T04:12:34;4.10;;;3.47;;
52608;SDS011;38503;48.544;12.142;2022-07-29T04:15:02;5.17;;;3.60;;
52608;SDS011;38503;48.544;12.142;2022-07-29T04:17:30;7.00;;;3.60;;
52608;SDS011;38503;48.544;12.142;2022-07-29T04:19:57;3.87;;;3.47;;
52608;SDS011;38503;48.544;12.142;2022-07-29T04:22:27;4.10;;;3.70;;
52608;SDS011;38503;48.544;12.142;2022-07-29T04:24:54;4.30;;;3.90;;
52608;SDS011;38503;48.544;12.142;2022-07-29T04:27:28;5.07;;;3.90;;
52608;SDS011;38503;48.544;12.142;2022-07-29T04:29:55;4.20;;;3.90;;
52608;SDS011;38503;48.544;12.142;2022-07-29T04:32:23;4.80;;;3.60;;
52608;SDS011;38503;48.544;12.142;2022-07-29T04:34:50;4.73;;;3.23;;
52608;SDS011;38503;48.544;12.142;2022-07-29T04:37:17;4.63;;;3.60;;
52608;SDS011;38503;48.544;12.142;2022-07-29T04:39:44;3.70;;;3.30;;
52608;SDS011;38503;48.544;12.142;2022-07-29T04:42:11;5.37;;;3.63;;
52608;SDS011;38503;48.544;12.142;2022-07-29T04:44:38;3.70;;;3.37;;
52608;SDS011;38503;48.544;12.142;2022-07-29T04:47:08;6.70;;;3.93;;
52608;SDS011;38503;48.544;12.142;2022-07-29T04:49:37;3.93;;;3.57;;
52608;SDS011;38503;48.544;12.142;2022-07-29T04:52:05;4.40;;;3.40;;
52608;SDS011;38503;48.544;12.142;2022-07-29T04:54:32;3.83;;;3.43;;
52608;SDS011;38503;48.544;12.142;2022-07-29T04:56:59;4.90;;;3.80;;
52608;SDS011;38503;48.544;12.142;2022-07-29T04:59:26;4.93;;;3.43;;
52608;SDS011;38503;48.544;12.142;2022-07-29T05:01:53;4.03;;;3.70;;
52608;SDS011;38503;48.544;12.142;2022-07-29T05:04:20;4.03;;;3.63;;
52608;SDS011;38503;48.544;12.142;2022-07-29T05:06:47;4.20;;;3.80;;
52608;SDS011;38503;48.544;12.142;2022-07-29T05:09:14;6.33;;;4.03;;
52608;SDS011;38503;48.544;12.142;2022-07-29T05:11:41;5.67;;;3.60;;
52608;SDS011;38503;48.544;12.142;2022-07-29T05:14:08;5.43;;;4.20;;
52608;SDS011;38503;48.544;12.142;2022-07-29T05:16:35;3.67;;;3.37;;
52608;SDS011;38503;48.544;12.142;2022-07-29T05:19:02;4.03;;;3.47;;
52608;SDS011;38503;48.544;12.142;2022-07-29T05:21:29;4.87;;;3.67;;
52608;SDS011;38503;48.544;12.142;2022-07-29T05:23:56;6.30;;;4.50;;
52608;SDS011;38503;48.544;12.142;2022-07-29T05:26:23;4.20;;;3.80;;
52608;SDS011;38503;48.544;12.142;2022-07-29T05:28:50;7.50;;;3.50;;
52608;SDS011;38503;48.544;12.142;2022-07-29T05:31:17;3.60;;;3.30;;
52608;SDS011;38503;48.544;12.142;2022-07-29T05:33:44;5.83;;;3.30;;
52608;SDS011;38503;48.544;12.142;2022-07-29T05:36:11;3.87;;;3.57;;
52608;SDS011;38503;48.544;12.142;2022-07-29T05:38:38;4.20;;;3.70;;
52608;SDS011;38503;48.544;12.142;2022-07-29T05:41:05;4.27;;;3.87;;
52608;SDS011;38503;48.544;12.142;2022-07-29T05:43:32;5.53;;;3.67;;
52608;SDS011;38503;48.544;12.142;2022-07-29T05:45:59;4.00;;;3.47;;
52608;SDS011;38503;48.544;12.142;2022-07-29T05:48:26;3.33;;;3.03;;
52608;SDS011;38503;48.544;12.142;2022-07-29T05:50:53;5.07;;;3.40;;
52608;SDS011;38503;48.544;12.142;2022-07-29T05:53:21;3.67;;;3.37;;
52608;SDS011;38503;48.544;12.142;2022-07-29T05:55:48;4.20;;;3.00;;
52608;SDS011;38503;48.544;12.142;2022-07-29T05:58:15;3.33;;;3.00;;
52608;SDS011;38503;48.544;12.142;2022-07-29T06:00:43;4.23;;;3.10;;
52608;SDS011;38503;48.544;12.142;2022-07-29T06:03:10;3.73;;;3.33;;
52608;SDS011;38503;48.544;12.142;2022-07-29T06:05:37;3.80;;;3.13;;
52608;SDS011;38503;48.544;12.142;2022-07-29T06:08:03;4.53;;;3.50;;
52608;SDS011;38503;48.544;12.142;2022-07-29T06:10:36;4.13;;;3.37;;
52608;SDS011;38503;48.544;12.142;2022-07-29T06:13:03;5.03;;;3.17;;
52608;SDS011;38503;48.544;12.142;2022-07-29T06:15:30;3.37;;;3.00;;
52608;SDS011;38503;48.544;12.142;2022-07-29T06:17:58;3.23;;;2.90;;
52608;SDS011;38503;48.544;12.142;2022-07-29T06:20:29;4.37;;;3.10;;
52608;SDS011;38503;48.544;12.142;2022-07-29T06:22:58;4.00;;;2.90;;
52608;SDS011;38503;48.544;12.142;2022-07-29T06:25:25;2.93;;;2.73;;
52608;SDS011;38503;48.544;12.142;2022-07-29T06:27:55;4.43;;;3.23;;
52608;SDS011;38503;48.544;12.142;2022-07-29T06:30:23;3.20;;;2.90;;
52608;SDS011;38503;48.544;12.142;2022-07-29T06:32:50;3.80;;;3.43;;
52608;SDS011;38503;48.544;12.142;2022-07-29T06:35:17;4.27;;;2.93;;
52608;SDS011;38503;48.544;12.142;2022-07-29T06:38:04;3.43;;;2.67;;
52608;SDS011;38503;48.544;12.142;2022-07-29T06:40:50;3.53;;;2.90;;
52608;SDS011;38503;48.544;12.142;2022-07-29T06:43:28;2.70;;;2.50;;
52608;SDS011;38503;48.544;12.142;2022-07-29T06:46:00;3.87;;;2.80;;
52608;SDS011;38503;48.544;12.142;2022-07-29T06:48:28;4.50;;;3.00;;
52608;SDS011;38503;48.544;12.142;2022-07-29T06:50:55;2.92;;;2.50;;
52608;SDS011;38503;48.544;12.142;2022-07-29T06:53:22;3.88;;;2.70;;
52608;SDS011;38503;48.544;12.142;2022-07-29T06:55:49;3.63;;;2.78;;
52608;SDS011;38503;48.544;12.142;2022-07-29T06:58:16;2.92;;;2.38;;
52608;SDS011;38503;48.544;12.142;2022-07-29T07:00:47;3.55;;;2.58;;
52608;SDS011;38503;48.544;12.142;2022-07-29T07:03:14;3.95;;;3.17;;
52608;SDS011;38503;48.544;12.142;2022-07-29T07:05:42;2.78;;;2.35;;
52608;SDS011;38503;48.544;12.142;2022-07-29T07:08:10;2.80;;;2.60;;
52608;SDS011;38503;48.544;12.142;2022-07-29T07:10:38;2.63;;;2.42;;
52608;SDS011;38503;48.544;12.142;2022-07-29T07:13:05;2.85;;;2.58;;
52608;SDS011;38503;48.544;12.142;2022-07-29T07:15:32;2.40;;;2.20;;
52608;SDS011;38503;48.544;12.142;2022-07-29T07:18:05;3.17;;;2.70;;
52608;SDS011;38503;48.544;12.142;2022-07-29T07:20:33;2.63;;;2.40;;
52608;SDS011;38503;48.544;12.142;2022-07-29T07:23:00;3.25;;;2.50;;
52608;SDS011;38503;48.544;12.142;2022-07-29T07:25:27;2.75;;;2.55;;
52608;SDS011;38503;48.544;12.142;2022-07-29T07:27:54;2.50;;;2.30;;
52608;SDS011;38503;48.544;12.142;2022-07-29T07:30:21;3.13;;;2.30;;
52608;SDS011;38503;48.544;12.142;2022-07-29T07:32:48;2.78;;;2.45;;
52608;SDS011;38503;48.544;12.142;2022-07-29T07:35:15;2.83;;;2.63;;
52608;SDS011;38503;48.544;12.142;2022-07-29T07:37:42;3.38;;;3.08;;
52608;SDS011;38503;48.544;12.142;2022-07-29T07:40:10;3.08;;;2.72;;
52608;SDS011;38503;48.544;12.142;2022-07-29T07:42:43;2.70;;;2.47;;
52608;SDS011;38503;48.544;12.142;2022-07-29T07:45:11;4.25;;;2.38;;
52608;SDS011;38503;48.544;12.142;2022-07-29T07:47:41;2.47;;;2.28;;
52608;SDS011;38503;48.544;12.142;2022-07-29T07:50:09;2.65;;;2.45;;
52608;SDS011;38503;48.544;12.142;2022-07-29T07:52:51;2.83;;;2.35;;
52608;SDS011;38503;48.544;12.142;2022-07-29T07:55:19;2.60;;;2.40;;
52608;SDS011;38503;48.544;12.142;2022-07-29T07:57:46;2.40;;;2.20;;
52608;SDS011;38503;48.544;12.142;2022-07-29T08:00:13;4.68;;;2.42;;
52608;SDS011;38503;48.544;12.142;2022-07-29T08:02:41;5.57;;;2.60;;
52608;SDS011;38503;48.544;12.142;2022-07-29T08:05:12;2.80;;;2.47;;
52608;SDS011;38503;48.544;12.142;2022-07-29T08:07:44;3.40;;;2.25;;
52608;SDS011;38503;48.544;12.142;2022-07-29T08:10:12;4.30;;;2.40;;
52608;SDS011;38503;48.544;12.142;2022-07-29T08:12:42;3.10;;;2.50;;
52608;SDS011;38503;48.544;12.142;2022-07-29T08:15:09;2.42;;;2.22;;
52608;SDS011;38503;48.544;12.142;2022-07-29T08:17:36;3.83;;;2.20;;
52608;SDS011;38503;48.544;12.142;2022-07-29T08:20:03;3.08;;;1.98;;
52608;SDS011;38503;48.544;12.142;2022-07-29T08:22:30;3.88;;;2.08;;
52608;SDS011;38503;48.544;12.142;2022-07-29T08:24:57;2.20;;;2.05;;
52608;SDS011;38503;48.544;12.142;2022-07-29T08:27:24;2.60;;;2.40;;
52608;SDS011;38503;48.544;12.142;2022-07-29T08:30:08;2.63;;;2.13;;
52608;SDS011;38503;48.544;12.142;2022-07-29T08:32:36;3.92;;;2.22;;
52608;SDS011;38503;48.544;12.142;2022-07-29T08:35:21;3.13;;;2.20;;
52608;SDS011;38503;48.544;12.142;2022-07-29T08:37:49;2.15;;;2.00;;
52608;SDS011;38503;48.544;12.142;2022-07-29T08:40:17;2.45;;;2.22;;
52608;SDS011;38503;48.544;12.142;2022-07-29T08:42:57;3.05;;;2.30;;
52608;SDS011;38503;48.544;12.142;2022-07-29T08:45:24;2.22;;;2.00;;
52608;SDS011;38503;48.544;12.142;2022-07-29T08:47:52;3.10;;;2.20;;
52608;SDS011;38503;48.544;12.142;2022-07-29T08:50:19;2.20;;;2.05;;
52608;SDS011;38503;48.544;12.142;2022-07-29T08:52:45;2.00;;;1.90;;
52608;SDS011;38503;48.544;12.142;2022-07-29T08:55:15;2.17;;;1.83;;
52608;SDS011;38503;48.544;12.142;2022-07-29T08:57:46;2.50;;;2.28;;
52608;SDS011;38503;48.544;12.142;2022-07-29T09:00:22;1.98;;;1.80;;
52608;SDS011;38503;48.544;12.142;2022-07-29T09:02:51;2.03;;;1.90;;
52608;SDS011;38503;48.544;12.142;2022-07-29T09:05:25;3.40;;;2.22;;
52608;SDS011;38503;48.544;12.142;2022-07-29T09:07:53;2.30;;;2.10;;
52608;SDS011;38503;48.544;12.142;2022-07-29T09:10:20;1.80;;;1.70;;
52608;SDS011;38503;48.544;12.142;2022-07-29T09:12:47;2.05;;;1.90;;
52608;SDS011;38503;48.544;12.142;2022-07-29T09:15:15;1.80;;;1.70;;
52608;SDS011;38503;48.544;12.142;2022-07-29T09:17:43;1.80;;;1.70;;
52608;SDS011;38503;48.544;12.142;2022-07-29T09:20:19;2.10;;;1.90;;
52608;SDS011;38503;48.544;12.142;2022-07-29T09:22:48;2.20;;;2.00;;
52608;SDS011;38503;48.544;12.142;2022-07-29T09:25:33;1.98;;;1.80;;
52608;SDS011;38503;48.544;12.142;2022-07-29T09:28:10;1.80;;;1.70;;
52608;SDS011;38503;48.544;12.142;2022-07-29T09:30:55;2.05;;;1.88;;
52608;SDS011;38503;48.544;12.142;2022-07-29T09:33:30;2.08;;;1.80;;
52608;SDS011;38503;48.544;12.142;2022-07-29T09:36:04;2.95;;;2.10;;
52608;SDS011;38503;48.544;12.142;2022-07-29T09:38:33;2.03;;;1.80;;
52608;SDS011;38503;48.544;12.142;2022-07-29T09:41:03;2.25;;;1.95;;
52608;SDS011;38503;48.544;12.142;2022-07-29T09:43:32;2.30;;;2.10;;
52608;SDS011;38503;48.544;12.142;2022-07-29T09:46:17;1.83;;;1.73;;
52608;SDS011;38503;48.544;12.142;2022-07-29T09:48:44;1.90;;;1.80;;
52608;SDS011;38503;48.544;12.142;2022-07-29T09:51:17;1.83;;;1.63;;
52608;SDS011;38503;48.544;12.142;2022-07-29T09:53:51;1.63;;;1.52;;
52608;SDS011;38503;48.544;12.142;2022-07-29T09:56:18;2.30;;;1.83;;
52608;SDS011;38503;48.544;12.142;2022-07-29T09:58:45;3.15;;;1.83;;
52608;SDS011;38503;48.544;12.142;2022-07-29T10:01:12;2.40;;;1.70;;
52608;SDS011;38503;48.544;12.142;2022-07-29T10:03:52;2.00;;;1.90;;
52608;SDS011;38503;48.544;12.142;2022-07-29T10:06:19;1.80;;;1.70;;
52608;SDS011;38503;48.544;12.142;2022-07-29T10:08:46;2.10;;;1.90;;
52608;SDS011;38503;48.544;12.142;2022-07-29T10:11:14;1.85;;;1.75;;
52608;SDS011;38503;48.544;12.142;2022-07-29T10:13:44;1.70;;;1.60;;
52608;SDS011;38503;48.544;12.142;2022-07-29T10:16:12;1.90;;;1.80;;
52608;SDS011;38503;48.544;12.142;2022-07-29T10:18:41;2.00;;;1.90;;
52608;SDS011;38503;48.544;12.142;2022-07-29T10:21:09;1.98;;;1.83;;
52608;SDS011;38503;48.544;12.142;2022-07-29T10:23:57;2.10;;;1.90;;
52608;SDS011;38503;48.544;12.142;2022-07-29T10:26:26;2.10;;;2.00;;
52608;SDS011;38503;48.544;12.142;2022-07-29T10:28:55;2.33;;;2.00;;
52608;SDS011;38503;48.544;12.142;2022-07-29T10:31:28;2.15;;;1.95;;
52608;SDS011;38503;48.544;12.142;2022-07-29T10:39:58;2.30;;;2.10;;
52608;SDS011;38503;48.544;12.142;2022-07-29T10:42:55;2.40;;;2.20;;
52608;SDS011;38503;48.544;12.142;2022-07-29T10:45:30;3.15;;;2.00;;
52608;SDS011;38503;48.544;12.142;2022-07-29T10:48:04;2.25;;;2.10;;
52608;SDS011;38503;48.544;12.142;2022-07-29T10:53:21;2.65;;;2.03;;
52608;SDS011;38503;48.544;12.142;2022-07-29T10:55:52;2.40;;;2.28;;
52608;SDS011;38503;48.544;12.142;2022-07-29T10:58:20;2.45;;;2.25;;
52608;SDS011;38503;48.544;12.142;2022-07-29T11:00:50;2.65;;;2.17;;
52608;SDS011;38503;48.544;12.142;2022-07-29T11:03:52;3.42;;;3.10;;
52608;SDS011;38503;48.544;12.142;2022-07-29T11:06:16;2.80;;;2.60;;
52608;SDS011;38503;48.544;12.142;2022-07-29T11:12:03;2.58;;;2.40;;
52608;SDS011;38503;48.544;12.142;2022-07-29T11:17:26;2.72;;;2.40;;
52608;SDS011;38503;48.544;12.142;2022-07-29T11:22:57;2.50;;;2.30;;
52608;SDS011;38503;48.544;12.142;2022-07-29T11:25:25;3.28;;;2.63;;
52608;SDS011;38503;48.544;12.142;2022-07-29T11:28:16;3.47;;;2.70;;
52608;SDS011;38503;48.544;12.142;2022-07-29T11:30:51;2.85;;;2.65;;
52608;SDS011;38503;48.544;12.142;2022-07-29T11:36:18;3.08;;;2.75;;
52608;SDS011;38503;48.544;12.142;2022-07-29T11:38:54;3.13;;;2.58;;
52608;SDS011;38503;48.544;12.142;2022-07-29T11:45:03;2.70;;;2.50;;
52608;SDS011;38503;48.544;12.142;2022-07-29T11:48:01;3.35;;;3.00;;
52608;SDS011;38503;48.544;12.142;2022-07-29T11:50:51;3.05;;;2.83;;
52608;SDS011;38503;48.544;12.142;2022-07-29T11:53:18;2.70;;;2.50;;
52608;SDS011;38503;48.544;12.142;2022-07-29T11:55:46;3.10;;;2.90;;
52608;SDS011;38503;48.544;12.142;2022-07-29T11:58:23;3.60;;;2.72;;
52608;SDS011;38503;48.544;12.142;2022-07-29T12:00:51;4.78;;;2.60;;
52608;SDS011;38503;48.544;12.142;2022-07-29T12:03:27;5.93;;;2.50;;
52608;SDS011;38503;48.544;12.142;2022-07-29T12:06:00;3.13;;;2.83;;
52608;SDS011;38503;48.544;12.142;2022-07-29T12:08:27;3.17;;;2.78;;
52608;SDS011;38503;48.544;12.142;2022-07-29T12:10:55;5.10;;;2.63;;
52608;SDS011;38503;48.544;12.142;2022-07-29T12:13:22;4.38;;;2.95;;
52608;SDS011;38503;48.544;12.142;2022-07-29T12:16:03;3.10;;;2.60;;
52608;SDS011;38503;48.544;12.142;2022-07-29T12:18:30;3.92;;;2.92;;
52608;SDS011;38503;48.544;12.142;2022-07-29T12:21:01;2.60;;;2.40;;
52608;SDS011;38503;48.544;12.142;2022-07-29T12:23:32;3.20;;;2.85;;
52608;SDS011;38503;48.544;12.142;2022-07-29T12:26:04;2.85;;;2.60;;
52608;SDS011;38503;48.544;12.142;2022-07-29T12:28:36;3.13;;;2.80;;
52608;SDS011;38503;48.544;12.142;2022-07-29T12:31:04;3.38;;;2.83;;
52608;SDS011;38503;48.544;12.142;2022-07-29T12:33:33;3.55;;;3.00;;
52608;SDS011;38503;48.544;12.142;2022-07-29T12:36:01;3.22;;;2.92;;
52608;SDS011;38503;48.544;12.142;2022-07-29T12:38:36;3.17;;;2.95;;
52608;SDS011;38503;48.544;12.142;2022-07-29T12:41:06;4.53;;;3.00;;
52608;SDS011;38503;48.544;12.142;2022-07-29T12:43:34;3.90;;;2.78;;
52608;SDS011;38503;48.544;12.142;2022-07-29T12:46:14;4.35;;;3.42;;
52608;SDS011;38503;48.544;12.142;2022-07-29T12:48:42;3.65;;;2.85;;
52608;SDS011;38503;48.544;12.142;2022-07-29T12:51:10;3.10;;;2.90;;
52608;SDS011;38503;48.544;12.142;2022-07-29T12:53:38;4.22;;;3.25;;
52608;SDS011;38503;48.544;12.142;2022-07-29T12:56:06;3.33;;;2.95;;
52608;SDS011;38503;48.544;12.142;2022-07-29T12:59:10;3.78;;;3.45;;
52608;SDS011;38503;48.544;12.142;2022-07-29T13:01:47;3.47;;;3.20;;
52608;SDS011;38503;48.544;12.142;2022-07-29T13:04:26;3.70;;;3.20;;
52608;SDS011;38503;48.544;12.142;2022-07-29T13:06:58;5.18;;;3.67;;
52608;SDS011;38503;48.544;12.142;2022-07-29T13:12:09;3.50;;;3.20;;
52608;SDS011;38503;48.544;12.142;2022-07-29T13:14:38;3.50;;;3.20;;
52608;SDS011;38503;48.544;12.142;2022-07-29T13:19:42;3.47;;;3.17;;
52608;SDS011;38503;48.544;12.142;2022-07-29T13:22:17;5.05;;;3.63;;
52608;SDS011;38503;48.544;12.142;2022-07-29T13:24:51;3.30;;;3.10;;
52608;SDS011;38503;48.544;12.142;2022-07-29T13:27:22;3.35;;;3.00;;
52608;SDS011;38503;48.544;12.142;2022-07-29T13:29:51;5.70;;;3.05;;
52608;SDS011;38503;48.544;12.142;2022-07-29T13:32:19;5.30;;;3.22;;
52608;SDS011;38503;48.544;12.142;2022-07-29T13:34:54;3.10;;;2.65;;
52608;SDS011;38503;48.544;12.142;2022-07-29T13:37:22;4.35;;;3.40;;
52608;SDS011;38503;48.544;12.142;2022-07-29T13:39:49;5.85;;;2.97;;
52608;SDS011;38503;48.544;12.142;2022-07-29T13:42:18;3.08;;;2.88;;
52608;SDS011;38503;48.544;12.142;2022-07-29T13:44:45;4.63;;;2.70;;
52608;SDS011;38503;48.544;12.142;2022-07-29T13:47:12;4.93;;;2.90;;
52608;SDS011;38503;48.544;12.142;2022-07-29T13:49:39;2.95;;;2.75;;
52608;SDS011;38503;48.544;12.142;2022-07-29T13:52:06;3.38;;;2.90;;
52608;SDS011;38503;48.544;12.142;2022-07-29T13:54:33;4.25;;;3.00;;
52608;SDS011;38503;48.544;12.142;2022-07-29T13:57:07;3.22;;;2.92;;
52608;SDS011;38503;48.544;12.142;2022-07-29T13:59:37;3.88;;;3.33;;
52608;SDS011;38503;48.544;12.142;2022-07-29T14:02:08;3.10;;;2.75;;
52608;SDS011;38503;48.544;12.142;2022-07-29T14:04:40;2.80;;;2.60;;
52608;SDS011;38503;48.544;12.142;2022-07-29T14:07:07;3.42;;;3.13;;
52608;SDS011;38503;48.544;12.142;2022-07-29T14:09:35;3.10;;;2.80;;
52608;SDS011;38503;48.544;12.142;2022-07-29T14:12:07;3.55;;;3.25;;
52608;SDS011;38503;48.544;12.142;2022-07-29T14:14:34;4.22;;;3.25;;
52608;SDS011;38503;48.544;12.142;2022-07-29T14:17:05;4.60;;;4.20;;
52608;SDS011;38503;48.544;12.142;2022-07-29T14:19:33;4.03;;;2.90;;
52608;SDS011;38503;48.544;12.142;2022-07-29T14:22:07;5.28;;;2.80;;
52608;SDS011;38503;48.544;12.142;2022-07-29T14:24:36;3.08;;;2.78;;
52608;SDS011;38503;48.544;12.142;2022-07-29T14:27:06;5.65;;;3.10;;
52608;SDS011;38503;48.544;12.142;2022-07-29T14:29:34;3.92;;;3.38;;
52608;SDS011;38503;48.544;12.142;2022-07-29T14:32:07;3.40;;;3.17;;
52608;SDS011;38503;48.544;12.142;2022-07-29T14:34:36;3.45;;;3.15;;
52608;SDS011;38503;48.544;12.142;2022-07-29T14:37:04;3.50;;;3.00;;
52608;SDS011;38503;48.544;12.142;2022-07-29T14:39:32;5.87;;;3.13;;
52608;SDS011;38503;48.544;12.142;2022-07-29T14:42:08;3.70;;;3.40;;
52608;SDS011;38503;48.544;12.142;2022-07-29T14:44:38;4.43;;;3.93;;
52608;SDS011;38503;48.544;12.142;2022-07-29T14:47:06;4.23;;;3.37;;
52608;SDS011;38503;48.544;12.142;2022-07-29T14:49:33;12.87;;;7.13;;
52608;SDS011;38503;48.544;12.142;2022-07-29T14:52:01;3.73;;;3.17;;
52608;SDS011;38503;48.544;12.142;2022-07-29T14:54:28;5.07;;;3.20;;
52608;SDS011;38503;48.544;12.142;2022-07-29T14:56:55;5.43;;;3.23;;
52608;SDS011;38503;48.544;12.142;2022-07-29T14:59:23;5.80;;;3.40;;
52608;SDS011;38503;48.544;12.142;2022-07-29T15:01:51;3.63;;;3.27;;
52608;SDS011;38503;48.544;12.142;2022-07-29T15:04:18;3.83;;;2.90;;
52608;SDS011;38503;48.544;12.142;2022-07-29T15:06:48;3.20;;;2.90;;
52608;SDS011;38503;48.544;12.142;2022-07-29T15:09:15;3.83;;;3.13;;
52608;SDS011;38503;48.544;12.142;2022-07-29T15:11:42;6.30;;;3.23;;
52608;SDS011;38503;48.544;12.142;2022-07-29T15:14:08;4.83;;;2.93;;
52608;SDS011;38503;48.544;12.142;2022-07-29T15:16:36;3.60;;;2.47;;
52608;SDS011;38503;48.544;12.142;2022-07-29T15:19:11;3.53;;;3.07;;
52608;SDS011;38503;48.544;12.142;2022-07-29T15:21:38;3.53;;;3.23;;
52608;SDS011;38503;48.544;12.142;2022-07-29T15:24:14;3.63;;;2.90;;
52608;SDS011;38503;48.544;12.142;2022-07-29T15:26:44;3.53;;;3.00;;
52608;SDS011;38503;48.544;12.142;2022-07-29T15:29:11;5.57;;;3.10;;
52608;SDS011;38503;48.544;12.142;2022-07-29T15:31:38;3.30;;;3.00;;
52608;SDS011;38503;48.544;12.142;2022-07-29T15:34:06;3.37;;;2.90;;
52608;SDS011;38503;48.544;12.142;2022-07-29T15:36:33;3.40;;;3.10;;